Arthur Foss — WRB5693 — position and weather

sailwx.info

Track history (hours):
 
Tides and Currents Weather Stations Pressure Air Temp Water Temp Dewpoint Dewpoint Depression Visibility Wind Speed Wind Dir Waves Ship Positions

Arthur Foss

Owner: FOSS MARITIME COMPANY, SEATTLE, WA. More information available from US FCC via Universal Licensing System and Coast Guard Vessel Documentation Center.

Last reported at 2017-Sep-23 20:39 UTC. Time now 2017-Sep-24 14:10 UTC.
Position N 33°54' W 118°27'.

Length 30 m; draft 5.3 m.

Type: Tug. MMSI: 366979360.

Date/timePositionNaut miles runAvg speedWind from/ knotsBaromVisibWave heightAir tempDewpointWater temp
2017-Sep-23 20:39N 33°54' W 118°27'0 0.0
2017-Sep-23 20:30N 33°54' W 118°27'  
2017-Sep-20 11:45N 33°54' W 118°27'0 0.0
2017-Sep-18 23:41N 33°54' W 118°27'0 0.2
2017-Sep-18 23:11N 33°54' W 118°27'0 0.0
2017-Sep-18 22:59N 33°54' W 118°27'4 0.9
2017-Sep-18 18:13N 33°51' W 118°25'2 6.1
2017-Sep-18 17:53N 33°52' W 118°26'2 2.8
2017-Sep-18 17:05N 33°54' W 118°27'0 1.1
2017-Sep-18 16:59N 33°54' W 118°27'0 0.3
2017-Sep-18 15:52N 33°55' W 118°27'1 1.8
2017-Sep-18 15:24N 33°54' W 118°28'0 0.9
2017-Sep-18 14:54N 33°54' W 118°27'1 1.4
2017-Sep-18 14:29N 33°54' W 118°28'1 0.2
2017-Sep-18 08:23N 33°54' W 118°27'0 0.0
2017-Sep-18 02:44N 33°54' W 118°27'0 0.0
2017-Sep-18 02:19N 33°54' W 118°27'0 0.0
2017-Sep-18 01:34N 33°54' W 118°27'0 0.0
2017-Sep-18 01:17N 33°54' W 118°27'  
2017-Sep-15 16:33N 33°48' W 118°29'0 6.5
2017-Sep-15 16:30N 33°48' W 118°29'3 6.4
2017-Sep-15 16:00N 33°45' W 118°27'3 6.2
2017-Sep-15 15:30N 33°43' W 118°24'3 6.1
2017-Sep-15 14:59N 33°42' W 118°21'3 6.1
2017-Sep-15 14:30N 33°42' W 118°17'3 6.1
2017-Sep-15 14:00N 33°43' W 118°14'3 5.5
2017-Sep-15 13:30N 33°46' W 118°13'1 1.1
2017-Sep-15 13:00N 33°46' W 118°13'3 6.0
2017-Sep-15 12:30N 33°43' W 118°14'2 4.4
2017-Sep-15 12:00N 33°44' W 118°16'0 0.0
2017-Sep-15 11:30N 33°44' W 118°16'0 0.0
2017-Sep-15 11:00N 33°44' W 118°16'0 0.0
2017-Sep-15 10:30N 33°44' W 118°16'0 0.0
2017-Sep-15 10:00N 33°44' W 118°16'0 0.0
2017-Sep-15 09:30N 33°44' W 118°16'0 0.0
2017-Sep-15 09:00N 33°44' W 118°16'1 2.4
2017-Sep-15 08:30N 33°43' W 118°15'4 8.1
2017-Sep-15 08:00N 33°42' W 118°20'710.1
2017-Sep-15 07:20N 33°46' W 118°27'  
Track history (hours):
 
Tides and Currents Weather Stations Pressure Air Temp Water Temp Dewpoint Dewpoint Depression Visibility Wind Speed Wind Dir Waves Ship Positions

Arthur Foss

Owner: FOSS MARITIME COMPANY, SEATTLE, WA. More information available from US FCC via Universal Licensing System and Coast Guard Vessel Documentation Center.

Last reported at 2017-Sep-23 20:39 UTC. Time now 2017-Sep-24 14:10 UTC.
Position N 33°54' W 118°27'.

Length 30 m; draft 5.3 m.

Type: Tug. MMSI: 366979360.

Date/timePositionNaut miles runAvg speedWind from/ knotsBaromVisibWave heightAir tempDewpointWater temp
2017-Sep-23 20:39N 33°54' W 118°27'0 0.0
2017-Sep-23 20:30N 33°54' W 118°27'  
2017-Sep-20 11:45N 33°54' W 118°27'0 0.0
2017-Sep-18 23:41N 33°54' W 118°27'0 0.2
2017-Sep-18 23:11N 33°54' W 118°27'0 0.0
2017-Sep-18 22:59N 33°54' W 118°27'4 0.9
2017-Sep-18 18:13N 33°51' W 118°25'2 6.1
2017-Sep-18 17:53N 33°52' W 118°26'2 2.8
2017-Sep-18 17:05N 33°54' W 118°27'0 1.1
2017-Sep-18 16:59N 33°54' W 118°27'0 0.3
2017-Sep-18 15:52N 33°55' W 118°27'1 1.8
2017-Sep-18 15:24N 33°54' W 118°28'0 0.9
2017-Sep-18 14:54N 33°54' W 118°27'1 1.4
2017-Sep-18 14:29N 33°54' W 118°28'1 0.2
2017-Sep-18 08:23N 33°54' W 118°27'0 0.0
2017-Sep-18 02:44N 33°54' W 118°27'0 0.0
2017-Sep-18 02:19N 33°54' W 118°27'0 0.0
2017-Sep-18 01:34N 33°54' W 118°27'0 0.0
2017-Sep-18 01:17N 33°54' W 118°27'  
2017-Sep-15 16:33N 33°48' W 118°29'0 6.5
2017-Sep-15 16:30N 33°48' W 118°29'3 6.4
2017-Sep-15 16:00N 33°45' W 118°27'3 6.2
2017-Sep-15 15:30N 33°43' W 118°24'3 6.1
2017-Sep-15 14:59N 33°42' W 118°21'3 6.1
2017-Sep-15 14:30N 33°42' W 118°17'3 6.1
2017-Sep-15 14:00N 33°43' W 118°14'3 5.5
2017-Sep-15 13:30N 33°46' W 118°13'1 1.1
2017-Sep-15 13:00N 33°46' W 118°13'3 6.0
2017-Sep-15 12:30N 33°43' W 118°14'2 4.4
2017-Sep-15 12:00N 33°44' W 118°16'0 0.0
2017-Sep-15 11:30N 33°44' W 118°16'0 0.0
2017-Sep-15 11:00N 33°44' W 118°16'0 0.0
2017-Sep-15 10:30N 33°44' W 118°16'0 0.0
2017-Sep-15 10:00N 33°44' W 118°16'0 0.0
2017-Sep-15 09:30N 33°44' W 118°16'0 0.0
2017-Sep-15 09:00N 33°44' W 118°16'1 2.4
2017-Sep-15 08:30N 33°43' W 118°15'4 8.1
2017-Sep-15 08:00N 33°42' W 118°20'710.1
2017-Sep-15 07:20N 33°46' W 118°27'  

Dump ship's entire track history